Taylor, NE

12:44 AM CST on November 29, 2014 (GMT -0600)
Sargent | Change Station
CLOSE
Current Station
Personal Weather Station
Location: Sargent, NE
Elevation: 2314 ft
Nearby Weather Stations

Elev 2314 ft 41.64 °N, 99.38 °W | Updated 1 minute ago

Clear
Clear
37.6 °F
Feels Like 38 °F
N
3.0
Wind Variable Wind from West
Gusts 4.0 mph

Today
High -- | Low -- °F
--% Chance of Precip.
Yesterday
High -- | Low -- °F
Precip. -- in
7:43 AM 5:08 PM
Waxing Crescent, 48% visible
Pressure 29.58 in
Visibility 10.0 miles
Clouds Clear
Windchill 38 °F
Dew Point 22 °F
Humidity 53%
Rainfall 0.00 in
Snow Depth Not available.
UV 0 out of 12
Pollen .10 out of 12
Air Quality Not available.
Flu Activity Not available.
METAR KODX 290553Z AUTO 25006KT 10SM CLR 11/M06 A2958 RMK AO2 SLP016 T01061061 10117 21011 402281100 57008 $

More Conditions Fewer Conditions

Pressure 29.58 in
Visibility 10.0 miles
Clouds Clear
Windchill 38 °F
Dew Point 22 °F
Humidity 53%
Rainfall 0.00 in
Snow Depth Not available.
UV 0 out of 12
Pollen .10 out of 12
Air Quality Not available.
Flu Activity Not available.
METAR KODX 290553Z AUTO 25006KT 10SM CLR 11/M06 A2958 RMK AO2 SLP016 T01061061 10117 21011 402281100 57008 $

More Conditions Fewer Conditions

10-Day Weather Forecast

Almanac

Astronomy

Nov. 29, 2014 Rise Set
Actual Time
Civil Twilight
Nautical Twilight
Astronomical Twilight
Moon
Length of Visible Light
Length of Day
Tomorrow will be .
, % of the Moon is Illuminated

Today's Extremes

State Highs State Lows

Community

WunderPhotos

Upload Photos

1,774,432 photos uploaded!

WunderBlogs® & News

Nearby

Air Quality

  Air Quality AQ Index Pollutant
Not available.

Snow Depth

Station Depth Elevation

Earthquake Activity

City Distance Mag. Time & Date
Minimum magnitude displayed is 2.5.

Coastal Water Temperatures

Place Temperature

Nearby Weather Stations